sensor_id;sensor_type;location;lat;lon;timestamp;pressure;altitude;pressure_sealevel;temperature;humidity
14966;BME280;7577;45.226;5.798;2022-09-30T00:00:06;97017.53;;;10.67;100.00
14966;BME280;7577;45.226;5.798;2022-09-30T00:02:36;97016.98;;;10.67;100.00
14966;BME280;7577;45.226;5.798;2022-09-30T00:05:07;97014.84;;;10.56;100.00
14966;BME280;7577;45.226;5.798;2022-09-30T00:07:37;97014.09;;;10.53;100.00
14966;BME280;7577;45.226;5.798;2022-09-30T00:10:09;97020.78;;;10.47;100.00
14966;BME280;7577;45.226;5.798;2022-09-30T00:15:20;97016.88;;;10.39;100.00
14966;BME280;7577;45.226;5.798;2022-09-30T00:17:51;97023.61;;;10.42;100.00
14966;BME280;7577;45.226;5.798;2022-09-30T00:20:21;97022.83;;;10.41;100.00
14966;BME280;7577;45.226;5.798;2022-09-30T00:25:39;97027.47;;;10.30;100.00
14966;BME280;7577;45.226;5.798;2022-09-30T00:28:09;97027.40;;;10.10;100.00
14966;BME280;7577;45.226;5.798;2022-09-30T00:30:39;97035.19;;;10.14;100.00
14966;BME280;7577;45.226;5.798;2022-09-30T00:33:09;97033.95;;;10.20;100.00
14966;BME280;7577;45.226;5.798;2022-09-30T00:35:40;97035.12;;;10.28;100.00
14966;BME280;7577;45.226;5.798;2022-09-30T00:38:10;97039.14;;;10.30;100.00
14966;BME280;7577;45.226;5.798;2022-09-30T00:40:40;97041.01;;;10.32;100.00
14966;BME280;7577;45.226;5.798;2022-09-30T00:43:13;97040.56;;;10.28;100.00
14966;BME280;7577;45.226;5.798;2022-09-30T00:45:48;97042.67;;;10.31;100.00
14966;BME280;7577;45.226;5.798;2022-09-30T00:48:22;97044.52;;;10.33;100.00
14966;BME280;7577;45.226;5.798;2022-09-30T00:53:41;97043.09;;;10.35;100.00
14966;BME280;7577;45.226;5.798;2022-09-30T00:56:15;97047.44;;;10.36;100.00
14966;BME280;7577;45.226;5.798;2022-09-30T00:58:49;97047.60;;;10.29;100.00
14966;BME280;7577;45.226;5.798;2022-09-30T01:01:19;97046.94;;;10.23;100.00
14966;BME280;7577;45.226;5.798;2022-09-30T01:03:54;97049.09;;;10.24;100.00
14966;BME280;7577;45.226;5.798;2022-09-30T01:06:24;97053.17;;;10.13;100.00
14966;BME280;7577;45.226;5.798;2022-09-30T01:08:55;97049.82;;;10.05;100.00
14966;BME280;7577;45.226;5.798;2022-09-30T01:11:27;97053.90;;;9.91;100.00
14966;BME280;7577;45.226;5.798;2022-09-30T01:13:59;97051.52;;;9.90;100.00
14966;BME280;7577;45.226;5.798;2022-09-30T01:16:46;97052.41;;;9.85;100.00
14966;BME280;7577;45.226;5.798;2022-09-30T01:19:25;97056.73;;;9.86;100.00
14966;BME280;7577;45.226;5.798;2022-09-30T01:22:29;97055.38;;;9.86;100.00
14966;BME280;7577;45.226;5.798;2022-09-30T01:28:27;97048.61;;;9.97;100.00
14966;BME280;7577;45.226;5.798;2022-09-30T01:31:07;97044.53;;;9.97;100.00
14966;BME280;7577;45.226;5.798;2022-09-30T01:33:45;97049.67;;;9.99;100.00
14966;BME280;7577;45.226;5.798;2022-09-30T01:36:32;97049.34;;;10.00;100.00
14966;BME280;7577;45.226;5.798;2022-09-30T01:39:09;97042.48;;;10.05;100.00
14966;BME280;7577;45.226;5.798;2022-09-30T01:41:43;97047.62;;;10.04;100.00
14966;BME280;7577;45.226;5.798;2022-09-30T01:44:16;97052.55;;;10.05;100.00
14966;BME280;7577;45.226;5.798;2022-09-30T01:46:50;97053.17;;;9.99;100.00
14966;BME280;7577;45.226;5.798;2022-09-30T01:49:25;97059.03;;;9.93;100.00
14966;BME280;7577;45.226;5.798;2022-09-30T01:51:57;97059.91;;;10.02;100.00
14966;BME280;7577;45.226;5.798;2022-09-30T01:54:31;97062.88;;;10.05;100.00
14966;BME280;7577;45.226;5.798;2022-09-30T01:57:04;97061.27;;;10.15;100.00
14966;BME280;7577;45.226;5.798;2022-09-30T01:59:38;97067.71;;;10.19;100.00
14966;BME280;7577;45.226;5.798;2022-09-30T02:02:12;97055.89;;;10.24;100.00
14966;BME280;7577;45.226;5.798;2022-09-30T02:04:48;97057.44;;;10.16;100.00
14966;BME280;7577;45.226;5.798;2022-09-30T02:07:20;97061.21;;;10.18;100.00
14966;BME280;7577;45.226;5.798;2022-09-30T02:09:55;97063.05;;;10.09;100.00
14966;BME280;7577;45.226;5.798;2022-09-30T02:12:28;97058.97;;;9.95;100.00
14966;BME280;7577;45.226;5.798;2022-09-30T02:15:00;97062.62;;;10.02;100.00
14966;BME280;7577;45.226;5.798;2022-09-30T02:17:34;97066.41;;;9.92;100.00
14966;BME280;7577;45.226;5.798;2022-09-30T02:22:58;97060.10;;;9.56;100.00
14966;BME280;7577;45.226;5.798;2022-09-30T02:28:16;97051.44;;;9.30;100.00
14966;BME280;7577;45.226;5.798;2022-09-30T02:30:49;97053.09;;;9.28;100.00
14966;BME280;7577;45.226;5.798;2022-09-30T02:36:09;97047.95;;;9.27;100.00
14966;BME280;7577;45.226;5.798;2022-09-30T02:38:42;97050.16;;;9.38;100.00
14966;BME280;7577;45.226;5.798;2022-09-30T02:41:15;97049.58;;;9.66;100.00
14966;BME280;7577;45.226;5.798;2022-09-30T02:43:46;97050.41;;;9.77;100.00
14966;BME280;7577;45.226;5.798;2022-09-30T02:46:20;97051.75;;;9.91;100.00
14966;BME280;7577;45.226;5.798;2022-09-30T02:48:53;97050.09;;;10.03;100.00
14966;BME280;7577;45.226;5.798;2022-09-30T02:54:10;97044.22;;;10.23;100.00
14966;BME280;7577;45.226;5.798;2022-09-30T02:56:44;97047.00;;;10.32;100.00
14966;BME280;7577;45.226;5.798;2022-09-30T02:59:14;97045.63;;;10.32;100.00
14966;BME280;7577;45.226;5.798;2022-09-30T03:01:44;97042.43;;;10.30;100.00
14966;BME280;7577;45.226;5.798;2022-09-30T03:04:17;97050.32;;;10.29;100.00
14966;BME280;7577;45.226;5.798;2022-09-30T03:06:48;97045.02;;;10.35;100.00
14966;BME280;7577;45.226;5.798;2022-09-30T03:09:22;97054.24;;;10.36;100.00
14966;BME280;7577;45.226;5.798;2022-09-30T03:11:57;97052.94;;;10.45;100.00
14966;BME280;7577;45.226;5.798;2022-09-30T03:14:38;97059.43;;;10.46;100.00
14966;BME280;7577;45.226;5.798;2022-09-30T03:17:27;97056.41;;;10.48;100.00
14966;BME280;7577;45.226;5.798;2022-09-30T03:25:52;97052.02;;;10.49;100.00
14966;BME280;7577;45.226;5.798;2022-09-30T03:28:25;97060.77;;;10.57;100.00
14966;BME280;7577;45.226;5.798;2022-09-30T03:31:00;97055.84;;;10.59;100.00
14966;BME280;7577;45.226;5.798;2022-09-30T03:36:18;97061.59;;;10.58;100.00
14966;BME280;7577;45.226;5.798;2022-09-30T03:38:50;97051.80;;;10.68;100.00
14966;BME280;7577;45.226;5.798;2022-09-30T03:41:26;97059.28;;;10.73;100.00
14966;BME280;7577;45.226;5.798;2022-09-30T03:44:00;97060.45;;;10.81;100.00
14966;BME280;7577;45.226;5.798;2022-09-30T03:46:33;97064.36;;;10.88;100.00
14966;BME280;7577;45.226;5.798;2022-09-30T03:51:54;97055.95;;;10.76;100.00
14966;BME280;7577;45.226;5.798;2022-09-30T03:54:26;97064.84;;;10.79;100.00
14966;BME280;7577;45.226;5.798;2022-09-30T03:56:58;97073.41;;;10.64;100.00
14966;BME280;7577;45.226;5.798;2022-09-30T03:59:29;97070.48;;;10.72;100.00
14966;BME280;7577;45.226;5.798;2022-09-30T04:02:00;97076.30;;;10.79;100.00
14966;BME280;7577;45.226;5.798;2022-09-30T04:04:31;97074.73;;;10.86;100.00
14966;BME280;7577;45.226;5.798;2022-09-30T04:07:01;97079.37;;;10.86;100.00
14966;BME280;7577;45.226;5.798;2022-09-30T04:09:31;97074.56;;;10.83;100.00
14966;BME280;7577;45.226;5.798;2022-09-30T04:12:01;97080.48;;;10.85;100.00
14966;BME280;7577;45.226;5.798;2022-09-30T04:14:32;97087.30;;;10.85;100.00
14966;BME280;7577;45.226;5.798;2022-09-30T04:17:04;97099.00;;;10.74;100.00
14966;BME280;7577;45.226;5.798;2022-09-30T04:19:34;97098.08;;;10.79;100.00
14966;BME280;7577;45.226;5.798;2022-09-30T04:22:07;97103.84;;;10.88;100.00
14966;BME280;7577;45.226;5.798;2022-09-30T04:24:37;97103.44;;;10.92;100.00
14966;BME280;7577;45.226;5.798;2022-09-30T04:27:07;97103.70;;;10.93;100.00
14966;BME280;7577;45.226;5.798;2022-09-30T04:29:38;97107.14;;;10.96;100.00
14966;BME280;7577;45.226;5.798;2022-09-30T04:34:52;97111.50;;;10.97;100.00
14966;BME280;7577;45.226;5.798;2022-09-30T04:37:22;97115.25;;;10.99;100.00
14966;BME280;7577;45.226;5.798;2022-09-30T04:39:52;97116.68;;;10.96;100.00
14966;BME280;7577;45.226;5.798;2022-09-30T04:42:22;97117.39;;;10.91;100.00
14966;BME280;7577;45.226;5.798;2022-09-30T04:44:52;97123.69;;;10.89;100.00
14966;BME280;7577;45.226;5.798;2022-09-30T04:47:24;97132.61;;;10.92;100.00
14966;BME280;7577;45.226;5.798;2022-09-30T04:49:54;97131.05;;;10.99;100.00
14966;BME280;7577;45.226;5.798;2022-09-30T04:52:24;97137.41;;;10.95;100.00
14966;BME280;7577;45.226;5.798;2022-09-30T04:54:54;97141.94;;;10.99;100.00
14966;BME280;7577;45.226;5.798;2022-09-30T05:00:13;97140.82;;;11.00;100.00
14966;BME280;7577;45.226;5.798;2022-09-30T05:02:48;97148.81;;;10.97;100.00
14966;BME280;7577;45.226;5.798;2022-09-30T05:05:19;97152.86;;;10.88;100.00
14966;BME280;7577;45.226;5.798;2022-09-30T05:07:49;97154.70;;;10.90;100.00
14966;BME280;7577;45.226;5.798;2022-09-30T05:27:24;97171.30;;;10.80;100.00
14966;BME280;7577;45.226;5.798;2022-09-30T05:29:55;97170.11;;;10.84;100.00
14966;BME280;7577;45.226;5.798;2022-09-30T05:32:25;97172.02;;;10.83;100.00
14966;BME280;7577;45.226;5.798;2022-09-30T05:34:56;97176.23;;;10.78;100.00
14966;BME280;7577;45.226;5.798;2022-09-30T05:40:13;97180.95;;;10.75;100.00
14966;BME280;7577;45.226;5.798;2022-09-30T05:42:43;97188.91;;;10.72;100.00
14966;BME280;7577;45.226;5.798;2022-09-30T05:45:20;97197.98;;;10.56;100.00
14966;BME280;7577;45.226;5.798;2022-09-30T05:47:52;97198.25;;;10.68;100.00
14966;BME280;7577;45.226;5.798;2022-09-30T05:50:23;97209.33;;;10.72;100.00
14966;BME280;7577;45.226;5.798;2022-09-30T05:53:00;97213.14;;;10.84;100.00
14966;BME280;7577;45.226;5.798;2022-09-30T05:55:30;97208.73;;;10.97;100.00
14966;BME280;7577;45.226;5.798;2022-09-30T05:58:01;97211.52;;;11.05;100.00
14966;BME280;7577;45.226;5.798;2022-09-30T06:00:42;97215.06;;;11.17;100.00
14966;BME280;7577;45.226;5.798;2022-09-30T06:03:13;97215.22;;;11.31;100.00
14966;BME280;7577;45.226;5.798;2022-09-30T06:08:28;97210.75;;;11.46;100.00
14966;BME280;7577;45.226;5.798;2022-09-30T06:10:59;97218.90;;;11.57;100.00
14966;BME280;7577;45.226;5.798;2022-09-30T06:13:32;97219.78;;;11.66;100.00
14966;BME280;7577;45.226;5.798;2022-09-30T06:16:03;97218.33;;;11.80;100.00
14966;BME280;7577;45.226;5.798;2022-09-30T06:18:33;97217.73;;;11.72;100.00
14966;BME280;7577;45.226;5.798;2022-09-30T06:21:05;97219.54;;;11.65;100.00
14966;BME280;7577;45.226;5.798;2022-09-30T06:23:42;97226.05;;;11.67;100.00
14966;BME280;7577;45.226;5.798;2022-09-30T06:26:13;97222.58;;;11.53;100.00
14966;BME280;7577;45.226;5.798;2022-09-30T06:28:43;97227.86;;;11.60;100.00
14966;BME280;7577;45.226;5.798;2022-09-30T06:31:13;97232.36;;;11.65;100.00
14966;BME280;7577;45.226;5.798;2022-09-30T06:36:34;97232.83;;;11.97;100.00
14966;BME280;7577;45.226;5.798;2022-09-30T06:39:12;97235.25;;;11.99;100.00
14966;BME280;7577;45.226;5.798;2022-09-30T06:41:45;97233.81;;;12.01;100.00
14966;BME280;7577;45.226;5.798;2022-09-30T06:44:19;97231.08;;;11.82;100.00
14966;BME280;7577;45.226;5.798;2022-09-30T06:46:50;97235.48;;;12.00;100.00
14966;BME280;7577;45.226;5.798;2022-09-30T06:49:25;97246.83;;;12.04;99.62
14966;BME280;7577;45.226;5.798;2022-09-30T06:51:55;97243.58;;;12.13;99.14
14966;BME280;7577;45.226;5.798;2022-09-30T06:54:38;97250.56;;;11.97;98.37
14966;BME280;7577;45.226;5.798;2022-09-30T06:57:11;97254.54;;;12.22;97.88
14966;BME280;7577;45.226;5.798;2022-09-30T06:59:45;97258.41;;;12.29;100.00
14966;BME280;7577;45.226;5.798;2022-09-30T07:02:24;97260.70;;;12.25;100.00
14966;BME280;7577;45.226;5.798;2022-09-30T07:04:54;97263.93;;;12.55;99.66
14966;BME280;7577;45.226;5.798;2022-09-30T07:07:25;97269.55;;;12.58;98.92
14966;BME280;7577;45.226;5.798;2022-09-30T07:09:55;97273.61;;;12.69;97.23
14966;BME280;7577;45.226;5.798;2022-09-30T07:12:32;97272.50;;;12.87;97.38
14966;BME280;7577;45.226;5.798;2022-09-30T07:15:07;97282.02;;;12.98;95.63
14966;BME280;7577;45.226;5.798;2022-09-30T07:20:25;97279.30;;;13.07;95.52
14966;BME280;7577;45.226;5.798;2022-09-30T07:25:53;97282.43;;;13.28;96.33
14966;BME280;7577;45.226;5.798;2022-09-30T07:28:33;97286.95;;;13.33;94.98
14966;BME280;7577;45.226;5.798;2022-09-30T07:31:09;97286.55;;;13.37;93.50
14966;BME280;7577;45.226;5.798;2022-09-30T07:33:47;97294.66;;;13.56;93.32
14966;BME280;7577;45.226;5.798;2022-09-30T07:36:23;97298.59;;;13.61;91.78
14966;BME280;7577;45.226;5.798;2022-09-30T07:39:07;97297.36;;;13.65;92.24
14966;BME280;7577;45.226;5.798;2022-09-30T07:41:39;97303.25;;;13.69;90.58
14966;BME280;7577;45.226;5.798;2022-09-30T07:44:24;97306.70;;;13.64;91.34
14966;BME280;7577;45.226;5.798;2022-09-30T07:46:57;97307.66;;;13.59;89.68
14966;BME280;7577;45.226;5.798;2022-09-30T07:49:31;97308.80;;;13.67;90.38
14966;BME280;7577;45.226;5.798;2022-09-30T07:54:48;97323.94;;;14.04;87.88
14966;BME280;7577;45.226;5.798;2022-09-30T08:00:09;97324.21;;;14.20;88.65
14966;BME280;7577;45.226;5.798;2022-09-30T08:02:50;97327.38;;;14.47;87.58
14966;BME280;7577;45.226;5.798;2022-09-30T08:05:22;97327.79;;;14.72;86.55
14966;BME280;7577;45.226;5.798;2022-09-30T08:07:58;97329.88;;;15.04;84.81
14966;BME280;7577;45.226;5.798;2022-09-30T08:10:35;97329.55;;;15.41;81.08
14966;BME280;7577;45.226;5.798;2022-09-30T08:13:05;97341.55;;;15.42;80.35
14966;BME280;7577;45.226;5.798;2022-09-30T08:15:37;97343.41;;;15.44;80.58
14966;BME280;7577;45.226;5.798;2022-09-30T08:20:49;97354.48;;;15.42;78.87
14966;BME280;7577;45.226;5.798;2022-09-30T08:23:29;97358.55;;;15.36;79.81
14966;BME280;7577;45.226;5.798;2022-09-30T08:26:03;97365.41;;;15.36;79.37
14966;BME280;7577;45.226;5.798;2022-09-30T08:28:37;97378.67;;;15.34;79.50
14966;BME280;7577;45.226;5.798;2022-09-30T08:31:16;97385.08;;;14.94;81.05
14966;BME280;7577;45.226;5.798;2022-09-30T08:33:53;97378.31;;;14.92;82.73
14966;BME280;7577;45.226;5.798;2022-09-30T08:36:30;97391.50;;;14.69;80.81
14966;BME280;7577;45.226;5.798;2022-09-30T08:39:01;97395.53;;;14.63;81.55
14966;BME280;7577;45.226;5.798;2022-09-30T08:41:49;97400.97;;;14.57;83.39
14966;BME280;7577;45.226;5.798;2022-09-30T08:44:41;97406.72;;;14.50;83.08
14966;BME280;7577;45.226;5.798;2022-09-30T08:50:12;97417.18;;;14.48;82.80
14966;BME280;7577;45.226;5.798;2022-09-30T08:52:46;97417.45;;;14.40;85.20
14966;BME280;7577;45.226;5.798;2022-09-30T09:06:46;97434.31;;;14.11;86.07
14966;BME280;7577;45.226;5.798;2022-09-30T09:15:27;97443.31;;;14.20;88.43
14966;BME280;7577;45.226;5.798;2022-09-30T09:18:25;97445.02;;;14.27;87.05
14966;BME280;7577;45.226;5.798;2022-09-30T09:21:10;97450.49;;;14.35;85.80
14966;BME280;7577;45.226;5.798;2022-09-30T09:26:19;97451.20;;;14.70;85.40
14966;BME280;7577;45.226;5.798;2022-09-30T09:29:05;97457.63;;;14.82;85.62
14966;BME280;7577;45.226;5.798;2022-09-30T09:31:34;97462.93;;;14.56;85.79
14966;BME280;7577;45.226;5.798;2022-09-30T09:34:12;97470.00;;;14.65;84.93
14966;BME280;7577;45.226;5.798;2022-09-30T09:36:56;97463.57;;;14.84;84.42
14966;BME280;7577;45.226;5.798;2022-09-30T09:39:43;97467.23;;;14.74;82.47
14966;BME280;7577;45.226;5.798;2022-09-30T09:42:40;97473.21;;;14.90;81.87
14966;BME280;7577;45.226;5.798;2022-09-30T09:45:18;97482.08;;;14.64;83.65
14966;BME280;7577;45.226;5.798;2022-09-30T09:47:51;97487.42;;;14.84;83.04
14966;BME280;7577;45.226;5.798;2022-09-30T09:50:25;97486.41;;;14.74;85.63
14966;BME280;7577;45.226;5.798;2022-09-30T09:53:38;97480.70;;;14.73;85.73
14966;BME280;7577;45.226;5.798;2022-09-30T09:56:19;97485.86;;;14.66;85.60
14966;BME280;7577;45.226;5.798;2022-09-30T09:59:08;97482.76;;;14.84;85.94
14966;BME280;7577;45.226;5.798;2022-09-30T10:01:40;97487.14;;;14.68;85.80
14966;BME280;7577;45.226;5.798;2022-09-30T10:04:16;97488.15;;;14.87;85.47
14966;BME280;7577;45.226;5.798;2022-09-30T10:06:53;97498.59;;;15.02;85.85
14966;BME280;7577;45.226;5.798;2022-09-30T10:09:31;97504.36;;;15.09;82.03
14966;BME280;7577;45.226;5.798;2022-09-30T10:12:28;97507.19;;;14.83;81.78
14966;BME280;7577;45.226;5.798;2022-09-30T10:18:02;97504.45;;;14.83;81.28
14966;BME280;7577;45.226;5.798;2022-09-30T10:20:34;97505.64;;;14.88;80.23
14966;BME280;7577;45.226;5.798;2022-09-30T10:23:17;97502.58;;;14.90;80.75
14966;BME280;7577;45.226;5.798;2022-09-30T10:28:46;97500.97;;;15.35;79.39
14966;BME280;7577;45.226;5.798;2022-09-30T10:31:26;97503.48;;;15.34;79.54
14966;BME280;7577;45.226;5.798;2022-09-30T10:34:07;97504.58;;;15.56;76.78
14966;BME280;7577;45.226;5.798;2022-09-30T10:36:40;97505.97;;;15.33;76.94
14966;BME280;7577;45.226;5.798;2022-09-30T10:39:23;97509.31;;;15.47;77.36
14966;BME280;7577;45.226;5.798;2022-09-30T10:42:10;97515.13;;;15.45;80.81
14966;BME280;7577;45.226;5.798;2022-09-30T10:44:44;97518.59;;;15.48;77.96
14966;BME280;7577;45.226;5.798;2022-09-30T10:47:21;97517.47;;;15.41;77.57
14966;BME280;7577;45.226;5.798;2022-09-30T10:49:57;97518.66;;;15.60;77.59
14966;BME280;7577;45.226;5.798;2022-09-30T10:52:38;97510.84;;;15.86;77.13
14966;BME280;7577;45.226;5.798;2022-09-30T10:55:24;97518.13;;;15.96;76.26
14966;BME280;7577;45.226;5.798;2022-09-30T10:57:51;97517.95;;;16.07;75.34
14966;BME280;7577;45.226;5.798;2022-09-30T11:00:23;97520.83;;;16.46;76.71
14966;BME280;7577;45.226;5.798;2022-09-30T11:02:59;97525.39;;;16.27;75.06
14966;BME280;7577;45.226;5.798;2022-09-30T11:05:35;97522.97;;;16.40;71.95
14966;BME280;7577;45.226;5.798;2022-09-30T11:08:13;97518.76;;;16.75;70.66
14966;BME280;7577;45.226;5.798;2022-09-30T11:10:49;97521.61;;;16.67;72.70
14966;BME280;7577;45.226;5.798;2022-09-30T11:13:23;97519.23;;;16.30;72.77
14966;BME280;7577;45.226;5.798;2022-09-30T11:16:02;97523.80;;;16.26;71.71
14966;BME280;7577;45.226;5.798;2022-09-30T11:18:34;97531.01;;;15.60;77.01
14966;BME280;7577;45.226;5.798;2022-09-30T11:23:54;97520.82;;;16.25;75.39
14966;BME280;7577;45.226;5.798;2022-09-30T11:26:32;97513.85;;;16.48;73.96
14966;BME280;7577;45.226;5.798;2022-09-30T11:29:33;97515.66;;;16.24;73.64
14966;BME280;7577;45.226;5.798;2022-09-30T11:35:03;97507.27;;;16.00;74.42
14966;BME280;7577;45.226;5.798;2022-09-30T11:37:46;97503.36;;;16.36;75.05
14966;BME280;7577;45.226;5.798;2022-09-30T11:40:42;97512.28;;;16.12;74.60
14966;BME280;7577;45.226;5.798;2022-09-30T11:43:22;97515.68;;;16.50;74.07
14966;BME280;7577;45.226;5.798;2022-09-30T11:46:27;97518.47;;;16.56;72.70
14966;BME280;7577;45.226;5.798;2022-09-30T11:55:05;97520.97;;;16.55;70.57
14966;BME280;7577;45.226;5.798;2022-09-30T11:57:41;97522.77;;;16.72;68.65
14966;BME280;7577;45.226;5.798;2022-09-30T12:00:15;97520.03;;;16.84;69.63
14966;BME280;7577;45.226;5.798;2022-09-30T12:02:53;97526.77;;;16.42;72.21
14966;BME280;7577;45.226;5.798;2022-09-30T12:05:34;97521.95;;;16.65;71.02
14966;BME280;7577;45.226;5.798;2022-09-30T12:10:55;97512.61;;;16.37;72.75
14966;BME280;7577;45.226;5.798;2022-09-30T12:13:33;97516.77;;;16.58;69.23
14966;BME280;7577;45.226;5.798;2022-09-30T12:16:07;97518.86;;;16.05;72.98
14966;BME280;7577;45.226;5.798;2022-09-30T12:21:39;97525.05;;;15.88;70.86
14966;BME280;7577;45.226;5.798;2022-09-30T12:27:01;97521.45;;;16.37;73.26
14966;BME280;7577;45.226;5.798;2022-09-30T12:29:37;97520.02;;;16.45;71.59
14966;BME280;7577;45.226;5.798;2022-09-30T12:32:56;97520.19;;;16.61;71.93
14966;BME280;7577;45.226;5.798;2022-09-30T12:41:45;97516.27;;;16.29;72.51
14966;BME280;7577;45.226;5.798;2022-09-30T12:44:48;97517.55;;;16.58;71.14
14966;BME280;7577;45.226;5.798;2022-09-30T12:47:33;97515.52;;;16.67;71.44
14966;BME280;7577;45.226;5.798;2022-09-30T12:50:08;97513.52;;;16.50;71.51
14966;BME280;7577;45.226;5.798;2022-09-30T12:52:45;97510.40;;;16.45;71.83
14966;BME280;7577;45.226;5.798;2022-09-30T12:55:26;97511.98;;;15.85;71.17
14966;BME280;7577;45.226;5.798;2022-09-30T12:58:12;97509.97;;;15.73;76.23
14966;BME280;7577;45.226;5.798;2022-09-30T13:00:51;97520.91;;;15.53;74.00
14966;BME280;7577;45.226;5.798;2022-09-30T13:03:24;97519.58;;;15.58;76.22
14966;BME280;7577;45.226;5.798;2022-09-30T13:09:23;97524.02;;;15.86;70.96
14966;BME280;7577;45.226;5.798;2022-09-30T13:12:14;97525.13;;;15.85;73.23
14966;BME280;7577;45.226;5.798;2022-09-30T13:17:49;97519.70;;;16.53;72.07
14966;BME280;7577;45.226;5.798;2022-09-30T13:20:53;97522.38;;;16.61;71.86
14966;BME280;7577;45.226;5.798;2022-09-30T13:26:38;97522.55;;;16.77;70.18
14966;BME280;7577;45.226;5.798;2022-09-30T13:29:35;97519.80;;;16.77;69.98
14966;BME280;7577;45.226;5.798;2022-09-30T13:32:08;97522.94;;;16.61;69.72
14966;BME280;7577;45.226;5.798;2022-09-30T13:35:00;97524.25;;;16.69;69.78
14966;BME280;7577;45.226;5.798;2022-09-30T13:37:35;97528.59;;;16.44;72.26
14966;BME280;7577;45.226;5.798;2022-09-30T13:40:19;97530.46;;;16.11;72.41
14966;BME280;7577;45.226;5.798;2022-09-30T13:42:55;97534.52;;;16.05;73.46
14966;BME280;7577;45.226;5.798;2022-09-30T13:45:33;97535.75;;;16.16;70.75
14966;BME280;7577;45.226;5.798;2022-09-30T13:48:10;97537.73;;;16.01;70.79
14966;BME280;7577;45.226;5.798;2022-09-30T13:50:52;97543.45;;;16.02;71.99
14966;BME280;7577;45.226;5.798;2022-09-30T13:53:26;97541.77;;;16.09;72.33
14966;BME280;7577;45.226;5.798;2022-09-30T14:02:23;97547.02;;;15.58;74.51
14966;BME280;7577;45.226;5.798;2022-09-30T14:08:22;97549.88;;;15.01;77.94
14966;BME280;7577;45.226;5.798;2022-09-30T14:11:01;97555.66;;;15.31;77.70
14966;BME280;7577;45.226;5.798;2022-09-30T14:13:39;97557.11;;;15.37;76.84
14966;BME280;7577;45.226;5.798;2022-09-30T14:16:36;97566.73;;;15.29;77.86
14966;BME280;7577;45.226;5.798;2022-09-30T14:19:20;97566.74;;;15.20;77.17
14966;BME280;7577;45.226;5.798;2022-09-30T14:24:36;97573.19;;;15.24;78.89
14966;BME280;7577;45.226;5.798;2022-09-30T14:27:18;97572.77;;;15.05;78.76
14966;BME280;7577;45.226;5.798;2022-09-30T14:29:53;97569.72;;;15.21;80.81
14966;BME280;7577;45.226;5.798;2022-09-30T14:32:28;97568.70;;;15.11;79.82
14966;BME280;7577;45.226;5.798;2022-09-30T14:35:03;97575.70;;;15.15;78.56
14966;BME280;7577;45.226;5.798;2022-09-30T14:37:34;97579.67;;;15.11;78.90
14966;BME280;7577;45.226;5.798;2022-09-30T14:40:08;97578.84;;;14.96;80.36
14966;BME280;7577;45.226;5.798;2022-09-30T14:42:42;97588.63;;;15.06;77.76
14966;BME280;7577;45.226;5.798;2022-09-30T14:45:20;97589.54;;;15.04;80.34
14966;BME280;7577;45.226;5.798;2022-09-30T14:47:56;97595.62;;;15.18;79.18
14966;BME280;7577;45.226;5.798;2022-09-30T14:50:29;97599.65;;;15.29;79.64
14966;BME280;7577;45.226;5.798;2022-09-30T14:53:00;97604.40;;;15.34;80.90
14966;BME280;7577;45.226;5.798;2022-09-30T14:55:32;97603.77;;;15.29;79.92
14966;BME280;7577;45.226;5.798;2022-09-30T14:58:38;97603.48;;;15.13;81.54
14966;BME280;7577;45.226;5.798;2022-09-30T15:01:02;97605.53;;;15.02;82.84
14966;BME280;7577;45.226;5.798;2022-09-30T15:03:37;97608.77;;;14.95;83.46
14966;BME280;7577;45.226;5.798;2022-09-30T15:06:22;97615.63;;;14.78;84.63
14966;BME280;7577;45.226;5.798;2022-09-30T15:09:00;97612.65;;;14.69;86.00
14966;BME280;7577;45.226;5.798;2022-09-30T15:11:36;97613.53;;;14.75;86.48
14966;BME280;7577;45.226;5.798;2022-09-30T15:14:10;97615.14;;;14.76;87.57
14966;BME280;7577;45.226;5.798;2022-09-30T15:19:31;97616.34;;;14.64;86.88
14966;BME280;7577;45.226;5.798;2022-09-30T15:24:48;97621.59;;;14.63;87.91
14966;BME280;7577;45.226;5.798;2022-09-30T15:27:22;97624.41;;;14.61;88.51
14966;BME280;7577;45.226;5.798;2022-09-30T15:32:38;97628.61;;;14.58;89.84
14966;BME280;7577;45.226;5.798;2022-09-30T15:38:08;97628.33;;;14.23;91.68
14966;BME280;7577;45.226;5.798;2022-09-30T15:43:39;97628.17;;;14.28;91.00
14966;BME280;7577;45.226;5.798;2022-09-30T15:46:39;97639.80;;;14.06;93.21
14966;BME280;7577;45.226;5.798;2022-09-30T15:58:36;97643.74;;;14.30;92.17
14966;BME280;7577;45.226;5.798;2022-09-30T16:01:19;97647.03;;;14.21;91.00
14966;BME280;7577;45.226;5.798;2022-09-30T16:03:55;97655.72;;;14.23;92.53
14966;BME280;7577;45.226;5.798;2022-09-30T16:06:35;97662.79;;;13.96;93.74
14966;BME280;7577;45.226;5.798;2022-09-30T16:09:21;97658.33;;;13.89;92.45
14966;BME280;7577;45.226;5.798;2022-09-30T16:12:00;97665.06;;;14.03;92.80
14966;BME280;7577;45.226;5.798;2022-09-30T16:14:39;97662.73;;;14.07;92.69
14966;BME280;7577;45.226;5.798;2022-09-30T16:17:16;97667.10;;;14.08;92.50
14966;BME280;7577;45.226;5.798;2022-09-30T16:19:51;97670.69;;;13.98;92.27
14966;BME280;7577;45.226;5.798;2022-09-30T16:25:33;97672.53;;;14.00;91.02
14966;BME280;7577;45.226;5.798;2022-09-30T16:28:09;97672.22;;;14.01;91.91
14966;BME280;7577;45.226;5.798;2022-09-30T16:30:43;97677.78;;;14.07;92.64
14966;BME280;7577;45.226;5.798;2022-09-30T16:33:28;97683.84;;;14.07;93.73
14966;BME280;7577;45.226;5.798;2022-09-30T16:36:06;97679.98;;;13.88;96.09
14966;BME280;7577;45.226;5.798;2022-09-30T16:38:39;97694.03;;;13.76;96.28
14966;BME280;7577;45.226;5.798;2022-09-30T16:41:11;97689.54;;;13.80;95.03
14966;BME280;7577;45.226;5.798;2022-09-30T16:43:47;97690.71;;;13.76;95.36
14966;BME280;7577;45.226;5.798;2022-09-30T16:46:20;97696.31;;;13.52;97.83
14966;BME280;7577;45.226;5.798;2022-09-30T16:48:53;97692.89;;;13.46;99.36
14966;BME280;7577;45.226;5.798;2022-09-30T16:51:23;97696.27;;;13.32;100.00
14966;BME280;7577;45.226;5.798;2022-09-30T16:56:56;97705.56;;;13.64;98.73
14966;BME280;7577;45.226;5.798;2022-09-30T16:59:18;97720.58;;;13.75;97.34